Decoded Metar for KGGI (GRINNELL REG in IA, USA) (IATA:GGI) | Meteo·Mobile Aviation Weather
aviador You're here:

KGGI Decoded Metar

GRINNELL REG in IA, USA
Report Time2018-11-21 18:15:00
UTC Time2018-11-21 18:21:51
Flight Rules vfr VFR
Wind090° at 07 kt
W.Decomp.*RWY 13: 5.2 kt HW 4.7 kt LCW
W.Rank090° ranks 21
Current wind is below 090° avg. (7.0)
Visibility9999 m
Phenomena:N/A
Clouds:N/A
Expected CloudBase > 1,600 ft AGL from Temp-Dew spread
CeilingNone
Temp04°C (ISA -9)
Dew Point00°C (75% RH)
AAT-0.5°C
QNH1025 hPa
Density Alt-400 ft
Elevation1,007 ft
Report Wrong Elevation
Raw Report
KGGI 211815Z AUTO 09007KT 10SM CLR 04/00 A3027 RMK AO2
T00351004=

Extra information for KGGI:More info

Metar Taf Metar & Taf Last 4 Metars F.Rules Stats Wind Profile Meteogram Temp Stats Airport Information Weather charts Add Link Nearby VenuesMetar ALERT Operation Metar Decoded Social comments

AIRNAV info for KGGI